createdAt,value
2022-11-16T00:03:08.410Z,16.77
2022-11-16T00:08:11.142Z,16.48
2022-11-16T00:13:13.891Z,15.10
2022-11-16T00:18:17.979Z,15.30
2022-11-16T00:23:20.962Z,14.32
2022-11-16T00:28:23.679Z,14.65
2022-11-16T00:33:28.161Z,14.13
2022-11-16T00:38:31.196Z,13.00
2022-11-16T00:43:34.403Z,15.80
2022-11-16T00:48:38.491Z,13.77
2022-11-16T00:53:41.301Z,13.75
2022-11-16T00:58:44.038Z,14.13
2022-11-16T01:03:48.354Z,13.80
2022-11-16T01:08:51.532Z,13.93
2022-11-16T01:13:56.659Z,13.55
2022-11-16T01:19:01.081Z,14.13
2022-11-16T01:24:03.801Z,14.07
2022-11-16T01:29:06.545Z,15.70
2022-11-16T01:34:10.914Z,13.93
2022-11-16T01:39:14.549Z,15.77
2022-11-16T01:44:50.401Z,13.82
2022-11-16T01:49:58.543Z,16.35
2022-11-16T01:55:02.314Z,14.27
2022-11-16T02:00:08.831Z,15.32
2022-11-16T02:05:16.630Z,17.85
2022-11-16T02:10:34.814Z,15.10
2022-11-16T02:15:41.450Z,13.40
2022-11-16T02:20:57.459Z,11.23
2022-11-16T02:26:16.761Z,14.97
2022-11-16T02:31:25.694Z,13.77
2022-11-16T02:36:28.501Z,9.32
2022-11-16T02:41:35.916Z,12.13
2022-11-16T02:46:43.831Z,13.33
2022-11-16T02:51:48.687Z,11.70
2022-11-16T02:56:56.232Z,10.55
2022-11-16T03:02:06.156Z,11.40
2022-11-16T03:07:11.849Z,11.27
2022-11-16T03:12:19.546Z,13.50
2022-11-16T03:17:29.379Z,13.23
2022-11-16T03:22:36.126Z,13.27
2022-11-16T03:27:43.410Z,11.98
2022-11-16T03:32:55.836Z,11.90
2022-11-16T03:38:01.327Z,14.33
2022-11-16T03:43:07.728Z,12.05
2022-11-16T03:48:13.098Z,11.27
2022-11-16T03:53:15.861Z,10.87
2022-11-16T03:58:19.032Z,11.45
2022-11-16T04:03:23.224Z,12.65
2022-11-16T04:08:43.759Z,12.70
2022-11-16T04:14:08.949Z,13.70
2022-11-16T04:19:31.013Z,12.65
2022-11-16T04:24:38.011Z,12.57
2022-11-16T04:29:41.941Z,13.57
2022-11-16T04:35:03.799Z,13.23
2022-11-16T04:40:07.777Z,14.90
2022-11-16T04:45:28.525Z,13.73
2022-11-16T04:50:32.811Z,13.00
2022-11-16T04:55:35.977Z,14.45
2022-11-16T05:00:38.699Z,12.13
2022-11-16T05:05:42.840Z,14.55
2022-11-16T05:10:45.594Z,15.57
2022-11-16T05:15:48.432Z,16.20
2022-11-16T05:21:01.746Z,15.80
2022-11-16T05:26:04.503Z,15.10
2022-11-16T05:31:07.386Z,15.20
2022-11-16T05:36:11.738Z,13.50
2022-11-16T05:41:14.459Z,12.93
2022-11-16T05:46:17.862Z,13.55
2022-11-16T05:51:22.155Z,9.50
2022-11-16T05:56:24.919Z,11.85
2022-11-16T06:01:28.051Z,11.20
2022-11-16T06:06:32.209Z,11.90
2022-11-16T06:11:36.539Z,9.73
2022-11-16T06:16:39.292Z,10.40
2022-11-16T06:21:43.437Z,10.93
2022-11-16T06:26:47.158Z,10.37
2022-11-16T06:31:50.002Z,11.65
2022-11-16T06:36:54.136Z,10.82
2022-11-16T06:41:56.864Z,11.30
2022-11-16T06:46:59.591Z,11.15
2022-11-16T06:52:03.745Z,10.05
2022-11-16T06:57:06.466Z,10.10
2022-11-16T07:02:11.399Z,9.40
2022-11-16T07:07:16.504Z,10.00
2022-11-16T07:12:19.297Z,11.05
2022-11-16T07:17:22.111Z,10.33
2022-11-16T07:22:26.296Z,11.02
2022-11-16T07:27:29.044Z,10.45
2022-11-16T07:32:31.974Z,12.07
2022-11-16T07:37:36.075Z,11.27
2022-11-16T07:42:38.797Z,11.63
2022-11-16T07:47:41.676Z,12.73
2022-11-16T07:52:46.519Z,11.27
2022-11-16T07:57:53.254Z,14.90
2022-11-16T08:02:57.750Z,13.00
2022-11-16T08:08:01.894Z,13.13
2022-11-16T08:13:05.465Z,14.82
2022-11-16T08:18:08.581Z,11.93
2022-11-16T08:23:12.869Z,14.07
2022-11-16T08:28:15.615Z,14.82
2022-11-16T08:33:19.513Z,10.48
2022-11-16T08:38:23.661Z,11.20
2022-11-16T08:43:27.017Z,12.43
2022-11-16T08:48:29.772Z,11.30
2022-11-16T08:53:33.856Z,9.43
2022-11-16T08:58:37.100Z,8.97
2022-11-16T09:03:39.880Z,10.85
2022-11-16T09:08:45.208Z,9.35
2022-11-16T09:13:49.490Z,8.83
2022-11-16T09:18:53.285Z,8.60
2022-11-16T09:23:58.629Z,8.48
2022-11-16T09:29:04.336Z,8.50
2022-11-16T09:34:07.841Z,7.33
2022-11-16T09:39:30.151Z,7.32
2022-11-16T09:44:59.782Z,7.00
2022-11-16T09:50:05.429Z,6.53
2022-11-16T09:55:24.684Z,6.22
2022-11-16T10:00:30.133Z,5.53
2022-11-16T10:05:38.671Z,5.83
2022-11-16T10:10:50.874Z,5.55
2022-11-16T10:16:02.336Z,5.03
2022-11-16T10:21:17.070Z,5.50
2022-11-16T10:26:30.311Z,4.70
2022-11-16T10:31:51.518Z,4.88
2022-11-16T10:36:58.990Z,4.53
2022-11-16T10:42:07.892Z,5.80
2022-11-16T10:47:18.598Z,4.78
2022-11-16T10:52:21.343Z,5.55
2022-11-16T10:57:26.565Z,4.53
2022-11-16T11:02:37.701Z,5.18
2022-11-16T11:07:40.919Z,3.88
2022-11-16T11:13:03.307Z,4.23
2022-11-16T11:18:19.027Z,4.60
2022-11-16T11:23:24.992Z,4.20
2022-11-16T11:28:31.964Z,4.50
2022-11-16T11:33:38.765Z,4.67
2022-11-16T11:38:58.422Z,5.63
2022-11-16T11:44:04.317Z,5.35
2022-11-16T11:49:14.034Z,5.13
2022-11-16T11:54:21.577Z,5.10
2022-11-16T11:59:27.484Z,5.25
2022-11-16T12:04:53.943Z,5.07
2022-11-16T12:10:04.244Z,4.90
2022-11-16T12:15:32.762Z,4.25
2022-11-16T12:20:43.514Z,5.38
2022-11-16T12:25:53.463Z,6.50
2022-11-16T12:31:12.792Z,6.18
2022-11-16T12:36:25.908Z,6.68
2022-11-16T12:41:58.564Z,6.30
2022-11-16T12:47:13.410Z,5.85
2022-11-16T12:52:35.654Z,7.10
2022-11-16T12:57:49.005Z,5.83
2022-11-16T13:03:06.166Z,5.80
2022-11-16T13:08:17.257Z,6.45
2022-11-16T13:13:41.138Z,6.68
2022-11-16T13:18:45.705Z,5.70
2022-11-16T13:24:01.125Z,7.28
2022-11-16T13:29:16.423Z,7.25
2022-11-16T13:34:25.582Z,7.30
2022-11-16T13:40:01.699Z,6.65
2022-11-16T13:45:09.773Z,6.68
2022-11-16T13:50:20.715Z,6.43
2022-11-16T13:55:30.210Z,7.40
2022-11-16T14:00:35.704Z,5.03
2022-11-16T14:05:41.651Z,4.22
2022-11-16T14:11:03.276Z,3.90
2022-11-16T14:16:48.524Z,3.20
2022-11-16T14:21:59.933Z,2.85
2022-11-16T14:27:15.992Z,2.67
2022-11-16T14:32:22.949Z,2.25
2022-11-16T14:37:34.226Z,2.95
2022-11-16T14:43:09.454Z,3.17
2022-11-16T14:48:16.458Z,2.83
2022-11-16T14:53:21.195Z,2.70
2022-11-16T14:58:24.564Z,2.85
2022-11-16T15:03:31.016Z,2.50
2022-11-16T15:08:39.664Z,2.65
2022-11-16T15:13:46.752Z,2.40
2022-11-16T15:19:00.548Z,4.07
2022-11-16T15:29:27.764Z,3.03
2022-11-16T15:34:32.099Z,3.47
2022-11-16T15:39:37.514Z,3.40
2022-11-16T15:44:40.431Z,2.95
2022-11-16T15:49:44.662Z,3.50
2022-11-16T15:55:07.501Z,3.20
2022-11-16T16:00:23.223Z,3.45
2022-11-16T16:05:38.091Z,3.50
2022-11-16T16:10:42.185Z,3.73
2022-11-16T16:15:45.187Z,3.58
2022-11-16T16:20:49.645Z,4.10
2022-11-16T16:25:53.918Z,4.70
2022-11-16T16:30:56.653Z,3.40
2022-11-16T16:35:59.410Z,4.05
2022-11-16T16:41:05.674Z,3.45
2022-11-16T16:46:08.621Z,4.83
2022-11-16T16:51:13.711Z,5.82
2022-11-16T16:56:19.894Z,8.95
2022-11-16T17:01:22.734Z,11.03
2022-11-16T17:06:25.691Z,5.82
2022-11-16T17:11:30.068Z,2.83
2022-11-16T17:16:33.649Z,2.70
2022-11-16T17:21:36.470Z,3.47
2022-11-16T17:26:41.862Z,2.25
2022-11-16T17:31:45.003Z,2.60
2022-11-16T17:36:47.906Z,2.33
2022-11-16T17:41:52.447Z,5.43
2022-11-16T17:46:55.225Z,8.20
2022-11-16T17:51:57.992Z,17.67
2022-11-16T17:57:02.150Z,2.55
2022-11-16T18:02:04.906Z,2.65
2022-11-16T18:07:07.698Z,2.50
2022-11-16T18:12:11.844Z,2.20
2022-11-16T18:17:14.932Z,5.45
2022-11-16T18:22:17.656Z,7.03
2022-11-16T18:27:21.780Z,5.43
2022-11-16T18:32:24.537Z,5.32
2022-11-16T18:37:27.280Z,5.93
2022-11-16T18:42:31.425Z,6.37
2022-11-16T18:47:34.187Z,4.05
2022-11-16T18:52:36.989Z,4.78
2022-11-16T18:57:41.075Z,4.50
2022-11-16T19:02:43.815Z,5.00
2022-11-16T19:07:46.553Z,4.82
2022-11-16T19:12:50.675Z,3.97
2022-11-16T19:18:19.978Z,3.83
2022-11-16T19:23:16.153Z,3.72
2022-11-16T19:28:20.241Z,3.00
2022-11-16T19:33:22.962Z,2.70
2022-11-16T19:38:25.772Z,2.78
2022-11-16T19:43:29.973Z,3.20
2022-11-16T19:48:33.151Z,2.33
2022-11-16T19:53:36.913Z,2.47
2022-11-16T19:58:41.908Z,2.33
2022-11-16T20:03:45.143Z,2.53
2022-11-16T20:08:49.300Z,2.00
2022-11-16T20:13:54.763Z,1.85
2022-11-16T20:18:58.127Z,1.60
2022-11-16T20:24:06.355Z,1.70
2022-11-16T20:29:12.540Z,2.08
2022-11-16T20:34:17.473Z,1.40
2022-11-16T20:39:21.602Z,1.23
2022-11-16T20:44:25.718Z,1.80
2022-11-16T20:49:28.430Z,1.70
2022-11-16T20:54:31.210Z,1.85
2022-11-16T20:59:35.493Z,1.63
2022-11-16T21:04:38.330Z,1.40
2022-11-16T21:09:54.973Z,1.40
2022-11-16T21:14:59.389Z,1.70
2022-11-16T21:20:25.841Z,1.60
2022-11-16T21:25:25.224Z,2.30
2022-11-16T21:30:29.542Z,2.83
2022-11-16T21:35:32.423Z,2.80
2022-11-16T21:40:35.467Z,2.50
2022-11-16T21:45:39.883Z,2.50
2022-11-16T21:50:42.994Z,2.40
2022-11-16T21:55:50.816Z,2.30
2022-11-16T22:00:57.339Z,2.13
2022-11-16T22:06:19.411Z,2.60
2022-11-16T22:11:22.941Z,2.40
2022-11-16T22:16:27.140Z,2.40
2022-11-16T22:21:30.050Z,1.90
2022-11-16T22:26:32.993Z,2.40
2022-11-16T22:31:37.405Z,2.65
2022-11-16T22:36:40.401Z,2.50
2022-11-16T22:41:43.458Z,2.43
2022-11-16T22:46:49.512Z,2.47
2022-11-16T22:51:52.619Z,2.60
2022-11-16T22:56:55.614Z,3.00
2022-11-16T23:02:01.057Z,2.75
2022-11-16T23:07:03.897Z,2.78
2022-11-16T23:12:25.055Z,2.87
2022-11-16T23:17:29.397Z,2.80
2022-11-16T23:22:49.857Z,2.90
2022-11-16T23:27:56.351Z,2.85
2022-11-16T23:33:00.769Z,2.77
2022-11-16T23:38:05.926Z,2.55
2022-11-16T23:43:29.248Z,2.80
2022-11-16T23:48:33.692Z,3.00
2022-11-16T23:53:39.693Z,2.80
2022-11-16T23:58:42.587Z,3.22
